sensor_id;sensor_type;location;lat;lon;timestamp;P1;P2;P0
72023;PMS5003;59889;50.700;5.440;2022-12-31T00:00:52;0;0;
72023;PMS5003;59889;50.700;5.440;2022-12-31T00:03:17;0;0;
72023;PMS5003;59889;50.700;5.440;2022-12-31T00:05:42;0;0;
72023;PMS5003;59889;50.700;5.440;2022-12-31T00:08:07;0;0;
72023;PMS5003;59889;50.700;5.440;2022-12-31T00:10:33;0;0;
72023;PMS5003;59889;50.700;5.440;2022-12-31T00:12:58;0;0;
72023;PMS5003;59889;50.700;5.440;2022-12-31T00:15:23;0;0;
72023;PMS5003;59889;50.700;5.440;2022-12-31T00:17:48;0;0;
72023;PMS5003;59889;50.700;5.440;2022-12-31T00:20:13;0;0;
72023;PMS5003;59889;50.700;5.440;2022-12-31T00:22:38;0;0;
72023;PMS5003;59889;50.700;5.440;2022-12-31T00:25:03;0;0;
72023;PMS5003;59889;50.700;5.440;2022-12-31T00:27:28;0;0;
72023;PMS5003;59889;50.700;5.440;2022-12-31T00:29:53;0;0;
72023;PMS5003;59889;50.700;5.440;2022-12-31T00:32:18;0;0;
72023;PMS5003;59889;50.700;5.440;2022-12-31T00:34:43;0;0;
72023;PMS5003;59889;50.700;5.440;2022-12-31T00:37:08;0;0;
72023;PMS5003;59889;50.700;5.440;2022-12-31T00:39:33;0;0;
72023;PMS5003;59889;50.700;5.440;2022-12-31T00:41:58;0;0;
72023;PMS5003;59889;50.700;5.440;2022-12-31T00:44:23;0;0;
72023;PMS5003;59889;50.700;5.440;2022-12-31T00:46:48;0;0;
72023;PMS5003;59889;50.700;5.440;2022-12-31T00:49:13;0;0;
72023;PMS5003;59889;50.700;5.440;2022-12-31T00:51:38;0;0;
72023;PMS5003;59889;50.700;5.440;2022-12-31T00:54:03;0;0;
72023;PMS5003;59889;50.700;5.440;2022-12-31T00:56:29;0;0;
72023;PMS5003;59889;50.700;5.440;2022-12-31T00:58:53;0;0;
72023;PMS5003;59889;50.700;5.440;2022-12-31T01:01:19;0;0;
72023;PMS5003;59889;50.700;5.440;2022-12-31T01:03:43;0;0;
72023;PMS5003;59889;50.700;5.440;2022-12-31T01:06:09;0;0;
72023;PMS5003;59889;50.700;5.440;2022-12-31T01:08:34;0;0;
72023;PMS5003;59889;50.700;5.440;2022-12-31T01:10:59;0;0;
72023;PMS5003;59889;50.700;5.440;2022-12-31T01:13:24;0;0;
72023;PMS5003;59889;50.700;5.440;2022-12-31T01:15:49;0;0;
72023;PMS5003;59889;50.700;5.440;2022-12-31T01:18:14;0;0;
72023;PMS5003;59889;50.700;5.440;2022-12-31T01:20:40;0;0;
72023;PMS5003;59889;50.700;5.440;2022-12-31T01:23:04;0;0;
72023;PMS5003;59889;50.700;5.440;2022-12-31T01:25:29;0;0;
72023;PMS5003;59889;50.700;5.440;2022-12-31T01:27:55;0;0;
72023;PMS5003;59889;50.700;5.440;2022-12-31T01:30:19;0;0;
72023;PMS5003;59889;50.700;5.440;2022-12-31T01:32:44;0;0;
72023;PMS5003;59889;50.700;5.440;2022-12-31T01:35:09;0;0;
72023;PMS5003;59889;50.700;5.440;2022-12-31T01:37:34;0;0;
72023;PMS5003;59889;50.700;5.440;2022-12-31T01:40:00;0;0;
72023;PMS5003;59889;50.700;5.440;2022-12-31T01:42:24;0;0;
72023;PMS5003;59889;50.700;5.440;2022-12-31T01:44:50;0;0;
72023;PMS5003;59889;50.700;5.440;2022-12-31T01:47:16;0;0;
72023;PMS5003;59889;50.700;5.440;2022-12-31T01:49:40;0;0;
72023;PMS5003;59889;50.700;5.440;2022-12-31T01:52:05;0;0;
72023;PMS5003;59889;50.700;5.440;2022-12-31T01:54:29;0;0;
72023;PMS5003;59889;50.700;5.440;2022-12-31T01:56:54;0;0;
72023;PMS5003;59889;50.700;5.440;2022-12-31T01:59:19;0;0;
72023;PMS5003;59889;50.700;5.440;2022-12-31T02:01:44;0;0;
72023;PMS5003;59889;50.700;5.440;2022-12-31T02:04:11;0;0;
72023;PMS5003;59889;50.700;5.440;2022-12-31T02:06:36;0;0;
72023;PMS5003;59889;50.700;5.440;2022-12-31T02:09:00;0;0;
72023;PMS5003;59889;50.700;5.440;2022-12-31T02:11:25;0;0;
72023;PMS5003;59889;50.700;5.440;2022-12-31T02:13:50;0;0;
72023;PMS5003;59889;50.700;5.440;2022-12-31T02:16:16;0;0;
72023;PMS5003;59889;50.700;5.440;2022-12-31T02:18:42;0;0;
72023;PMS5003;59889;50.700;5.440;2022-12-31T02:21:11;0;0;
72023;PMS5003;59889;50.700;5.440;2022-12-31T02:23:38;0;0;
72023;PMS5003;59889;50.700;5.440;2022-12-31T02:28:25;0;0;
72023;PMS5003;59889;50.700;5.440;2022-12-31T02:30:46;0;0;
72023;PMS5003;59889;50.700;5.440;2022-12-31T02:33:12;0;0;
72023;PMS5003;59889;50.700;5.440;2022-12-31T02:35:37;0;0;
72023;PMS5003;59889;50.700;5.440;2022-12-31T02:38:02;0;0;
72023;PMS5003;59889;50.700;5.440;2022-12-31T02:40:25;0;0;
72023;PMS5003;59889;50.700;5.440;2022-12-31T02:42:50;0;0;
72023;PMS5003;59889;50.700;5.440;2022-12-31T02:45:16;0;0;
72023;PMS5003;59889;50.700;5.440;2022-12-31T02:47:44;0;0;
72023;PMS5003;59889;50.700;5.440;2022-12-31T02:50:10;0;0;
72023;PMS5003;59889;50.700;5.440;2022-12-31T02:52:33;0;0;
72023;PMS5003;59889;50.700;5.440;2022-12-31T02:54:57;0;0;
72023;PMS5003;59889;50.700;5.440;2022-12-31T02:57:24;0;0;
72023;PMS5003;59889;50.700;5.440;2022-12-31T02:59:47;0;0;
72023;PMS5003;59889;50.700;5.440;2022-12-31T03:02:11;0;0;
72023;PMS5003;59889;50.700;5.440;2022-12-31T03:04:36;0;0;
72023;PMS5003;59889;50.700;5.440;2022-12-31T03:07:01;0;0;
72023;PMS5003;59889;50.700;5.440;2022-12-31T03:09:26;0;0;
72023;PMS5003;59889;50.700;5.440;2022-12-31T03:11:51;0;0;
72023;PMS5003;59889;50.700;5.440;2022-12-31T03:14:16;0;0;
72023;PMS5003;59889;50.700;5.440;2022-12-31T03:16:41;0;0;
72023;PMS5003;59889;50.700;5.440;2022-12-31T03:19:06;0;0;
72023;PMS5003;59889;50.700;5.440;2022-12-31T03:21:31;0;0;
72023;PMS5003;59889;50.700;5.440;2022-12-31T03:23:56;0;0;
72023;PMS5003;59889;50.700;5.440;2022-12-31T03:26:21;0;0;
72023;PMS5003;59889;50.700;5.440;2022-12-31T03:28:46;0;0;
72023;PMS5003;59889;50.700;5.440;2022-12-31T03:31:11;0;0;
72023;PMS5003;59889;50.700;5.440;2022-12-31T03:33:37;0;0;
72023;PMS5003;59889;50.700;5.440;2022-12-31T03:36:02;0;0;
72023;PMS5003;59889;50.700;5.440;2022-12-31T03:38:26;0;0;
72023;PMS5003;59889;50.700;5.440;2022-12-31T03:40:52;0;0;
72023;PMS5003;59889;50.700;5.440;2022-12-31T03:43:16;0;0;
72023;PMS5003;59889;50.700;5.440;2022-12-31T03:45:41;0;0;
72023;PMS5003;59889;50.700;5.440;2022-12-31T03:48:07;0;0;
72023;PMS5003;59889;50.700;5.440;2022-12-31T03:50:32;0;0;
72023;PMS5003;59889;50.700;5.440;2022-12-31T03:52:57;0;0;
72023;PMS5003;59889;50.700;5.440;2022-12-31T03:55:21;0;0;
72023;PMS5003;59889;50.700;5.440;2022-12-31T03:57:47;0;0;
72023;PMS5003;59889;50.700;5.440;2022-12-31T04:00:12;0;0;
72023;PMS5003;59889;50.700;5.440;2022-12-31T04:02:37;0;0;
72023;PMS5003;59889;50.700;5.440;2022-12-31T04:05:02;0;0;
72023;PMS5003;59889;50.700;5.440;2022-12-31T04:07:27;0;0;
72023;PMS5003;59889;50.700;5.440;2022-12-31T04:09:52;0;0;
72023;PMS5003;59889;50.700;5.440;2022-12-31T04:12:17;0;0;
72023;PMS5003;59889;50.700;5.440;2022-12-31T04:14:42;0;0;
72023;PMS5003;59889;50.700;5.440;2022-12-31T04:17:07;0;0;
72023;PMS5003;59889;50.700;5.440;2022-12-31T04:19:32;0;0;
72023;PMS5003;59889;50.700;5.440;2022-12-31T04:21:57;0;0;
72023;PMS5003;59889;50.700;5.440;2022-12-31T04:24:22;0;0;
72023;PMS5003;59889;50.700;5.440;2022-12-31T04:26:47;0;0;
72023;PMS5003;59889;50.700;5.440;2022-12-31T04:29:12;0;0;
72023;PMS5003;59889;50.700;5.440;2022-12-31T04:31:37;0;0;
72023;PMS5003;59889;50.700;5.440;2022-12-31T04:34:02;0;0;
72023;PMS5003;59889;50.700;5.440;2022-12-31T04:36:27;0;0;
72023;PMS5003;59889;50.700;5.440;2022-12-31T04:38:52;0;0;
72023;PMS5003;59889;50.700;5.440;2022-12-31T04:41:17;0;0;
72023;PMS5003;59889;50.700;5.440;2022-12-31T04:43:43;0;0;
72023;PMS5003;59889;50.700;5.440;2022-12-31T04:46:08;0;0;
72023;PMS5003;59889;50.700;5.440;2022-12-31T04:48:32;0;0;
72023;PMS5003;59889;50.700;5.440;2022-12-31T04:50:57;0;0;
72023;PMS5003;59889;50.700;5.440;2022-12-31T04:53:22;0;0;
72023;PMS5003;59889;50.700;5.440;2022-12-31T04:55:47;0;0;
72023;PMS5003;59889;50.700;5.440;2022-12-31T04:58:13;0;0;
72023;PMS5003;59889;50.700;5.440;2022-12-31T05:00:38;0;0;
72023;PMS5003;59889;50.700;5.440;2022-12-31T05:03:03;0;0;
72023;PMS5003;59889;50.700;5.440;2022-12-31T05:05:28;0;0;
72023;PMS5003;59889;50.700;5.440;2022-12-31T05:07:53;0;0;
72023;PMS5003;59889;50.700;5.440;2022-12-31T05:10:18;0;0;
72023;PMS5003;59889;50.700;5.440;2022-12-31T05:12:43;0;0;
72023;PMS5003;59889;50.700;5.440;2022-12-31T05:15:08;0;0;
72023;PMS5003;59889;50.700;5.440;2022-12-31T05:17:33;0;0;
72023;PMS5003;59889;50.700;5.440;2022-12-31T05:19:58;0;0;
72023;PMS5003;59889;50.700;5.440;2022-12-31T05:22:23;0;0;
72023;PMS5003;59889;50.700;5.440;2022-12-31T05:24:48;0;0;
72023;PMS5003;59889;50.700;5.440;2022-12-31T05:27:13;0;0;
72023;PMS5003;59889;50.700;5.440;2022-12-31T05:29:38;0;0;
72023;PMS5003;59889;50.700;5.440;2022-12-31T05:32:03;0;0;
72023;PMS5003;59889;50.700;5.440;2022-12-31T05:34:28;0;0;
72023;PMS5003;59889;50.700;5.440;2022-12-31T05:36:53;1;1;
72023;PMS5003;59889;50.700;5.440;2022-12-31T05:39:18;0;0;
72023;PMS5003;59889;50.700;5.440;2022-12-31T05:41:43;0;0;
72023;PMS5003;59889;50.700;5.440;2022-12-31T05:44:09;0;0;
72023;PMS5003;59889;50.700;5.440;2022-12-31T05:46:33;0;0;
72023;PMS5003;59889;50.700;5.440;2022-12-31T05:48:58;0;0;
72023;PMS5003;59889;50.700;5.440;2022-12-31T05:51:23;0;0;
72023;PMS5003;59889;50.700;5.440;2022-12-31T05:53:48;0;0;
72023;PMS5003;59889;50.700;5.440;2022-12-31T05:56:13;0;0;
72023;PMS5003;59889;50.700;5.440;2022-12-31T05:58:38;0;0;
72023;PMS5003;59889;50.700;5.440;2022-12-31T06:01:04;0;0;
72023;PMS5003;59889;50.700;5.440;2022-12-31T06:03:28;0;0;
72023;PMS5003;59889;50.700;5.440;2022-12-31T06:05:54;0;0;
72023;PMS5003;59889;50.700;5.440;2022-12-31T06:08:18;0;0;
72023;PMS5003;59889;50.700;5.440;2022-12-31T06:10:44;0;0;
72023;PMS5003;59889;50.700;5.440;2022-12-31T06:13:09;0;0;
72023;PMS5003;59889;50.700;5.440;2022-12-31T06:15:35;0;0;
72023;PMS5003;59889;50.700;5.440;2022-12-31T06:17:59;0;0;
72023;PMS5003;59889;50.700;5.440;2022-12-31T06:20:24;0;0;
72023;PMS5003;59889;50.700;5.440;2022-12-31T06:22:49;0;0;
72023;PMS5003;59889;50.700;5.440;2022-12-31T06:25:14;0;0;
72023;PMS5003;59889;50.700;5.440;2022-12-31T06:27:39;0;0;
72023;PMS5003;59889;50.700;5.440;2022-12-31T06:30:04;0;0;
72023;PMS5003;59889;50.700;5.440;2022-12-31T06:32:29;0;0;
72023;PMS5003;59889;50.700;5.440;2022-12-31T06:34:54;0;0;
72023;PMS5003;59889;50.700;5.440;2022-12-31T06:37:19;0;0;
72023;PMS5003;59889;50.700;5.440;2022-12-31T06:39:44;0;0;
72023;PMS5003;59889;50.700;5.440;2022-12-31T06:42:09;0;0;
72023;PMS5003;59889;50.700;5.440;2022-12-31T06:44:34;0;0;
72023;PMS5003;59889;50.700;5.440;2022-12-31T06:46:59;0;0;
72023;PMS5003;59889;50.700;5.440;2022-12-31T06:49:24;0;0;
72023;PMS5003;59889;50.700;5.440;2022-12-31T06:51:49;0;0;
72023;PMS5003;59889;50.700;5.440;2022-12-31T06:54:14;0;0;
72023;PMS5003;59889;50.700;5.440;2022-12-31T06:56:40;0;0;
72023;PMS5003;59889;50.700;5.440;2022-12-31T06:59:05;0;0;
72023;PMS5003;59889;50.700;5.440;2022-12-31T07:01:37;0;0;
72023;PMS5003;59889;50.700;5.440;2022-12-31T07:03:56;0;0;
72023;PMS5003;59889;50.700;5.440;2022-12-31T07:06:20;0;0;
72023;PMS5003;59889;50.700;5.440;2022-12-31T07:08:46;0;0;
72023;PMS5003;59889;50.700;5.440;2022-12-31T07:11:11;0;0;
72023;PMS5003;59889;50.700;5.440;2022-12-31T07:13:42;0;0;
72023;PMS5003;59889;50.700;5.440;2022-12-31T07:16:02;0;0;
72023;PMS5003;59889;50.700;5.440;2022-12-31T07:18:27;0;0;
72023;PMS5003;59889;50.700;5.440;2022-12-31T07:20:50;0;0;
72023;PMS5003;59889;50.700;5.440;2022-12-31T07:23:15;0;0;
72023;PMS5003;59889;50.700;5.440;2022-12-31T07:25:42;0;0;
72023;PMS5003;59889;50.700;5.440;2022-12-31T07:28:08;0;0;
72023;PMS5003;59889;50.700;5.440;2022-12-31T07:30:32;0;0;
72023;PMS5003;59889;50.700;5.440;2022-12-31T07:33:02;0;0;
72023;PMS5003;59889;50.700;5.440;2022-12-31T07:35:22;0;0;
72023;PMS5003;59889;50.700;5.440;2022-12-31T07:37:47;0;0;
72023;PMS5003;59889;50.700;5.440;2022-12-31T07:40:11;0;0;
72023;PMS5003;59889;50.700;5.440;2022-12-31T07:42:37;0;0;
72023;PMS5003;59889;50.700;5.440;2022-12-31T07:45:02;0;0;
72023;PMS5003;59889;50.700;5.440;2022-12-31T07:47:26;0;0;
72023;PMS5003;59889;50.700;5.440;2022-12-31T07:49:51;0;0;
72023;PMS5003;59889;50.700;5.440;2022-12-31T07:52:16;1;0;
72023;PMS5003;59889;50.700;5.440;2022-12-31T07:54:40;0;0;
72023;PMS5003;59889;50.700;5.440;2022-12-31T07:57:05;2;1;
72023;PMS5003;59889;50.700;5.440;2022-12-31T07:59:34;2;2;
72023;PMS5003;59889;50.700;5.440;2022-12-31T08:01:56;0;0;
72023;PMS5003;59889;50.700;5.440;2022-12-31T08:04:23;2;2;
72023;PMS5003;59889;50.700;5.440;2022-12-31T08:06:48;0;0;
72023;PMS5003;59889;50.700;5.440;2022-12-31T08:09:14;0;0;
72023;PMS5003;59889;50.700;5.440;2022-12-31T08:11:36;1;1;
72023;PMS5003;59889;50.700;5.440;2022-12-31T08:14:01;3;2;
72023;PMS5003;59889;50.700;5.440;2022-12-31T08:16:26;1;1;
72023;PMS5003;59889;50.700;5.440;2022-12-31T08:18:51;0;0;
72023;PMS5003;59889;50.700;5.440;2022-12-31T08:21:19;1;1;
72023;PMS5003;59889;50.700;5.440;2022-12-31T08:23:42;1;1;
72023;PMS5003;59889;50.700;5.440;2022-12-31T08:26:10;0;0;
72023;PMS5003;59889;50.700;5.440;2022-12-31T08:28:37;1;1;
72023;PMS5003;59889;50.700;5.440;2022-12-31T08:30:56;0;0;
72023;PMS5003;59889;50.700;5.440;2022-12-31T08:33:22;0;0;
72023;PMS5003;59889;50.700;5.440;2022-12-31T08:35:50;2;1;
72023;PMS5003;59889;50.700;5.440;2022-12-31T08:38:14;1;1;
72023;PMS5003;59889;50.700;5.440;2022-12-31T08:40:39;1;1;
72023;PMS5003;59889;50.700;5.440;2022-12-31T08:43:06;1;0;
72023;PMS5003;59889;50.700;5.440;2022-12-31T08:45:27;1;1;
72023;PMS5003;59889;50.700;5.440;2022-12-31T08:47:54;1;1;
72023;PMS5003;59889;50.700;5.440;2022-12-31T08:50:17;1;1;
72023;PMS5003;59889;50.700;5.440;2022-12-31T08:52:42;0;0;
72023;PMS5003;59889;50.700;5.440;2022-12-31T08:55:11;2;2;
72023;PMS5003;59889;50.700;5.440;2022-12-31T08:57:33;0;0;
72023;PMS5003;59889;50.700;5.440;2022-12-31T09:00:00;1;1;
72023;PMS5003;59889;50.700;5.440;2022-12-31T09:02:27;1;1;
72023;PMS5003;59889;50.700;5.440;2022-12-31T09:04:50;2;1;
72023;PMS5003;59889;50.700;5.440;2022-12-31T09:07:12;1;1;
72023;PMS5003;59889;50.700;5.440;2022-12-31T09:09:40;1;1;
72023;PMS5003;59889;50.700;5.440;2022-12-31T09:12:04;0;0;
72023;PMS5003;59889;50.700;5.440;2022-12-31T09:14:34;0;0;
72023;PMS5003;59889;50.700;5.440;2022-12-31T09:16:54;1;0;
72023;PMS5003;59889;50.700;5.440;2022-12-31T09:19:18;4;4;
72023;PMS5003;59889;50.700;5.440;2022-12-31T09:21:43;2;2;
72023;PMS5003;59889;50.700;5.440;2022-12-31T09:24:09;6;6;
72023;PMS5003;59889;50.700;5.440;2022-12-31T09:26:38;7;6;
72023;PMS5003;59889;50.700;5.440;2022-12-31T09:28:59;10;9;
72023;PMS5003;59889;50.700;5.440;2022-12-31T09:31:25;11;10;
72023;PMS5003;59889;50.700;5.440;2022-12-31T09:33:49;12;11;
72023;PMS5003;59889;50.700;5.440;2022-12-31T09:36:15;10;10;
72023;PMS5003;59889;50.700;5.440;2022-12-31T09:38:41;14;13;
72023;PMS5003;59889;50.700;5.440;2022-12-31T09:43:34;9;8;
72023;PMS5003;59889;50.700;5.440;2022-12-31T09:46:01;15;13;
72023;PMS5003;59889;50.700;5.440;2022-12-31T09:48:29;15;12;
72023;PMS5003;59889;50.700;5.440;2022-12-31T09:50:50;13;13;
72023;PMS5003;59889;50.700;5.440;2022-12-31T09:55:35;12;11;
72023;PMS5003;59889;50.700;5.440;2022-12-31T09:58:02;11;11;
72023;PMS5003;59889;50.700;5.440;2022-12-31T10:00:27;11;11;
72023;PMS5003;59889;50.700;5.440;2022-12-31T10:07:42;10;10;
72023;PMS5003;59889;50.700;5.440;2022-12-31T10:10:06;11;11;
72023;PMS5003;59889;50.700;5.440;2022-12-31T10:12:34;10;9;
72023;PMS5003;59889;50.700;5.440;2022-12-31T10:15:01;11;9;
72023;PMS5003;59889;50.700;5.440;2022-12-31T10:17:23;10;9;
72023;PMS5003;59889;50.700;5.440;2022-12-31T10:19:50;8;8;
72023;PMS5003;59889;50.700;5.440;2022-12-31T10:22:13;8;8;
72023;PMS5003;59889;50.700;5.440;2022-12-31T10:24:41;8;7;
72023;PMS5003;59889;50.700;5.440;2022-12-31T10:27:03;8;8;
72023;PMS5003;59889;50.700;5.440;2022-12-31T10:29:29;7;7;
72023;PMS5003;59889;50.700;5.440;2022-12-31T10:31:54;8;7;
72023;PMS5003;59889;50.700;5.440;2022-12-31T10:34:16;8;7;
72023;PMS5003;59889;50.700;5.440;2022-12-31T10:36:46;6;5;
72023;PMS5003;59889;50.700;5.440;2022-12-31T10:39:07;8;7;
72023;PMS5003;59889;50.700;5.440;2022-12-31T10:51:21;6;6;
72023;PMS5003;59889;50.700;5.440;2022-12-31T10:53:40;6;6;
72023;PMS5003;59889;50.700;5.440;2022-12-31T10:58:33;5;4;
72023;PMS5003;59889;50.700;5.440;2022-12-31T11:00:52;6;6;
72023;PMS5003;59889;50.700;5.440;2022-12-31T11:05:48;6;5;
72023;PMS5003;59889;50.700;5.440;2022-12-31T11:08:10;5;5;
72023;PMS5003;59889;50.700;5.440;2022-12-31T11:10:38;4;4;
72023;PMS5003;59889;50.700;5.440;2022-12-31T11:15:30;5;4;
72023;PMS5003;59889;50.700;5.440;2022-12-31T11:17:50;6;6;
72023;PMS5003;59889;50.700;5.440;2022-12-31T11:20:21;5;5;
72023;PMS5003;59889;50.700;5.440;2022-12-31T11:22:42;5;5;
72023;PMS5003;59889;50.700;5.440;2022-12-31T11:25:12;4;4;
72023;PMS5003;59889;50.700;5.440;2022-12-31T11:27:34;5;4;
72023;PMS5003;59889;50.700;5.440;2022-12-31T11:29:58;6;5;
72023;PMS5003;59889;50.700;5.440;2022-12-31T11:32:22;5;5;
72023;PMS5003;59889;50.700;5.440;2022-12-31T11:34:52;4;4;
72023;PMS5003;59889;50.700;5.440;2022-12-31T11:37:12;5;5;
72023;PMS5003;59889;50.700;5.440;2022-12-31T11:39:34;5;5;
72023;PMS5003;59889;50.700;5.440;2022-12-31T11:41:59;5;5;
72023;PMS5003;59889;50.700;5.440;2022-12-31T11:44:27;4;3;
72023;PMS5003;59889;50.700;5.440;2022-12-31T11:46:50;4;4;
72023;PMS5003;59889;50.700;5.440;2022-12-31T11:49:17;4;4;
72023;PMS5003;59889;50.700;5.440;2022-12-31T11:51:42;4;4;
72023;PMS5003;59889;50.700;5.440;2022-12-31T11:56:30;2;2;
72023;PMS5003;59889;50.700;5.440;2022-12-31T11:58:54;3;2;
72023;PMS5003;59889;50.700;5.440;2022-12-31T12:01:19;5;4;
72023;PMS5003;59889;50.700;5.440;2022-12-31T12:03:43;4;4;
72023;PMS5003;59889;50.700;5.440;2022-12-31T12:06:09;3;3;
72023;PMS5003;59889;50.700;5.440;2022-12-31T12:08:33;3;3;
72023;PMS5003;59889;50.700;5.440;2022-12-31T12:10:59;3;3;
72023;PMS5003;59889;50.700;5.440;2022-12-31T12:13:24;3;2;
72023;PMS5003;59889;50.700;5.440;2022-12-31T12:15:49;3;3;
72023;PMS5003;59889;50.700;5.440;2022-12-31T12:18:21;3;3;
72023;PMS5003;59889;50.700;5.440;2022-12-31T12:20:39;5;4;
72023;PMS5003;59889;50.700;5.440;2022-12-31T12:27:54;5;4;
72023;PMS5003;59889;50.700;5.440;2022-12-31T12:30:20;2;2;
72023;PMS5003;59889;50.700;5.440;2022-12-31T12:35:13;2;1;
72023;PMS5003;59889;50.700;5.440;2022-12-31T12:37:34;4;4;
72023;PMS5003;59889;50.700;5.440;2022-12-31T12:40:01;4;4;
72023;PMS5003;59889;50.700;5.440;2022-12-31T12:42:25;2;2;
72023;PMS5003;59889;50.700;5.440;2022-12-31T12:47:15;1;1;
72023;PMS5003;59889;50.700;5.440;2022-12-31T12:49:40;3;3;
72023;PMS5003;59889;50.700;5.440;2022-12-31T12:52:08;3;2;
72023;PMS5003;59889;50.700;5.440;2022-12-31T12:54:33;4;4;
72023;PMS5003;59889;50.700;5.440;2022-12-31T12:56:57;4;4;
72023;PMS5003;59889;50.700;5.440;2022-12-31T12:59:33;3;3;
72023;PMS5003;59889;50.700;5.440;2022-12-31T13:01:46;4;3;
72023;PMS5003;59889;50.700;5.440;2022-12-31T13:04:21;4;3;
72023;PMS5003;59889;50.700;5.440;2022-12-31T13:06:36;3;3;
72023;PMS5003;59889;50.700;5.440;2022-12-31T13:09:03;5;5;
72023;PMS5003;59889;50.700;5.440;2022-12-31T13:11:28;4;4;
72023;PMS5003;59889;50.700;5.440;2022-12-31T13:13:52;5;4;
72023;PMS5003;59889;50.700;5.440;2022-12-31T13:16:16;5;4;
72023;PMS5003;59889;50.700;5.440;2022-12-31T13:18:43;6;5;
72023;PMS5003;59889;50.700;5.440;2022-12-31T13:21:08;4;4;
72023;PMS5003;59889;50.700;5.440;2022-12-31T13:23:32;4;4;
72023;PMS5003;59889;50.700;5.440;2022-12-31T13:25:59;4;4;
72023;PMS5003;59889;50.700;5.440;2022-12-31T13:28:21;4;4;
72023;PMS5003;59889;50.700;5.440;2022-12-31T13:30:46;5;5;
72023;PMS5003;59889;50.700;5.440;2022-12-31T13:33:13;4;4;
72023;PMS5003;59889;50.700;5.440;2022-12-31T13:35:43;7;5;
72023;PMS5003;59889;50.700;5.440;2022-12-31T13:38:02;3;3;
72023;PMS5003;59889;50.700;5.440;2022-12-31T13:40:26;6;6;
72023;PMS5003;59889;50.700;5.440;2022-12-31T13:42:52;6;6;
72023;PMS5003;59889;50.700;5.440;2022-12-31T13:45:18;7;6;
72023;PMS5003;59889;50.700;5.440;2022-12-31T13:47:42;7;6;
72023;PMS5003;59889;50.700;5.440;2022-12-31T13:50:09;7;6;
72023;PMS5003;59889;50.700;5.440;2022-12-31T13:52:33;6;6;
72023;PMS5003;59889;50.700;5.440;2022-12-31T13:54:57;8;6;
72023;PMS5003;59889;50.700;5.440;2022-12-31T13:57:22;7;6;
72023;PMS5003;59889;50.700;5.440;2022-12-31T13:59:47;8;7;
72023;PMS5003;59889;50.700;5.440;2022-12-31T14:02:15;7;6;
72023;PMS5003;59889;50.700;5.440;2022-12-31T14:04:38;3;3;
72023;PMS5003;59889;50.700;5.440;2022-12-31T14:07:03;4;3;
72023;PMS5003;59889;50.700;5.440;2022-12-31T14:09:27;4;4;
72023;PMS5003;59889;50.700;5.440;2022-12-31T14:11:56;5;4;
72023;PMS5003;59889;50.700;5.440;2022-12-31T14:14:21;5;5;
72023;PMS5003;59889;50.700;5.440;2022-12-31T14:16:43;6;5;
72023;PMS5003;59889;50.700;5.440;2022-12-31T14:19:09;5;5;
72023;PMS5003;59889;50.700;5.440;2022-12-31T14:21:33;6;5;
72023;PMS5003;59889;50.700;5.440;2022-12-31T14:23:58;3;2;
72023;PMS5003;59889;50.700;5.440;2022-12-31T14:26:22;5;5;
72023;PMS5003;59889;50.700;5.440;2022-12-31T14:28:48;3;3;
72023;PMS5003;59889;50.700;5.440;2022-12-31T14:31:13;5;4;
72023;PMS5003;59889;50.700;5.440;2022-12-31T14:33:39;4;4;
72023;PMS5003;59889;50.700;5.440;2022-12-31T14:36:06;5;4;
72023;PMS5003;59889;50.700;5.440;2022-12-31T14:38:31;4;3;
72023;PMS5003;59889;50.700;5.440;2022-12-31T14:40:55;4;4;
72023;PMS5003;59889;50.700;5.440;2022-12-31T14:43:20;3;3;
72023;PMS5003;59889;50.700;5.440;2022-12-31T14:45:45;6;4;
72023;PMS5003;59889;50.700;5.440;2022-12-31T14:48:09;4;3;
72023;PMS5003;59889;50.700;5.440;2022-12-31T14:50:32;4;4;
72023;PMS5003;59889;50.700;5.440;2022-12-31T14:55:24;5;4;
72023;PMS5003;59889;50.700;5.440;2022-12-31T14:57:48;3;3;
72023;PMS5003;59889;50.700;5.440;2022-12-31T15:00:21;2;2;
72023;PMS5003;59889;50.700;5.440;2022-12-31T15:02:47;3;3;
72023;PMS5003;59889;50.700;5.440;2022-12-31T15:05:08;4;4;
72023;PMS5003;59889;50.700;5.440;2022-12-31T15:07:29;3;3;
72023;PMS5003;59889;50.700;5.440;2022-12-31T15:09:56;2;2;
72023;PMS5003;59889;50.700;5.440;2022-12-31T15:12:21;3;3;
72023;PMS5003;59889;50.700;5.440;2022-12-31T15:14:49;3;3;
72023;PMS5003;59889;50.700;5.440;2022-12-31T15:17:11;4;4;
72023;PMS5003;59889;50.700;5.440;2022-12-31T15:22:00;3;3;
72023;PMS5003;59889;50.700;5.440;2022-12-31T15:24:24;3;3;
72023;PMS5003;59889;50.700;5.440;2022-12-31T15:26:50;4;2;
72023;PMS5003;59889;50.700;5.440;2022-12-31T15:29:21;2;2;
72023;PMS5003;59889;50.700;5.440;2022-12-31T15:31:43;3;3;
72023;PMS5003;59889;50.700;5.440;2022-12-31T15:34:04;4;3;
72023;PMS5003;59889;50.700;5.440;2022-12-31T15:36:29;3;3;
72023;PMS5003;59889;50.700;5.440;2022-12-31T15:39:03;3;3;
72023;PMS5003;59889;50.700;5.440;2022-12-31T15:41:25;4;4;
72023;PMS5003;59889;50.700;5.440;2022-12-31T15:43:45;1;1;
72023;PMS5003;59889;50.700;5.440;2022-12-31T15:46:12;4;4;
72023;PMS5003;59889;50.700;5.440;2022-12-31T15:48:36;3;3;
72023;PMS5003;59889;50.700;5.440;2022-12-31T15:50:59;1;1;
72023;PMS5003;59889;50.700;5.440;2022-12-31T15:53:26;4;3;
72023;PMS5003;59889;50.700;5.440;2022-12-31T15:55:49;1;1;
72023;PMS5003;59889;50.700;5.440;2022-12-31T15:58:16;5;3;
72023;PMS5003;59889;50.700;5.440;2022-12-31T16:00:43;2;2;
72023;PMS5003;59889;50.700;5.440;2022-12-31T16:03:09;2;2;
72023;PMS5003;59889;50.700;5.440;2022-12-31T16:05:32;4;4;
72023;PMS5003;59889;50.700;5.440;2022-12-31T16:07:55;3;2;
72023;PMS5003;59889;50.700;5.440;2022-12-31T16:10:21;4;2;
72023;PMS5003;59889;50.700;5.440;2022-12-31T16:12:45;4;4;
72023;PMS5003;59889;50.700;5.440;2022-12-31T16:15:12;3;3;
72023;PMS5003;59889;50.700;5.440;2022-12-31T16:17:35;3;3;
72023;PMS5003;59889;50.700;5.440;2022-12-31T16:20:00;3;3;
72023;PMS5003;59889;50.700;5.440;2022-12-31T16:22:25;4;3;
72023;PMS5003;59889;50.700;5.440;2022-12-31T16:24:51;3;3;
72023;PMS5003;59889;50.700;5.440;2022-12-31T16:27:15;4;4;
72023;PMS5003;59889;50.700;5.440;2022-12-31T16:29:40;4;4;
72023;PMS5003;59889;50.700;5.440;2022-12-31T16:32:05;3;2;
72023;PMS5003;59889;50.700;5.440;2022-12-31T16:34:34;4;4;
72023;PMS5003;59889;50.700;5.440;2022-12-31T16:36:56;5;4;
72023;PMS5003;59889;50.700;5.440;2022-12-31T16:39:23;6;6;
72023;PMS5003;59889;50.700;5.440;2022-12-31T16:41:45;6;6;
72023;PMS5003;59889;50.700;5.440;2022-12-31T16:46:35;8;7;
72023;PMS5003;59889;50.700;5.440;2022-12-31T16:49:01;9;7;
72023;PMS5003;59889;50.700;5.440;2022-12-31T16:51:28;8;7;
72023;PMS5003;59889;50.700;5.440;2022-12-31T16:53:51;7;7;
72023;PMS5003;59889;50.700;5.440;2022-12-31T16:56:20;7;7;
72023;PMS5003;59889;50.700;5.440;2022-12-31T16:58:41;7;6;
72023;PMS5003;59889;50.700;5.440;2022-12-31T17:01:09;6;5;
72023;PMS5003;59889;50.700;5.440;2022-12-31T17:03:31;8;8;
72023;PMS5003;59889;50.700;5.440;2022-12-31T17:06:00;7;7;
72023;PMS5003;59889;50.700;5.440;2022-12-31T17:08:23;10;10;
72023;PMS5003;59889;50.700;5.440;2022-12-31T17:10:47;9;8;
72023;PMS5003;59889;50.700;5.440;2022-12-31T17:13:19;11;11;
72023;PMS5003;59889;50.700;5.440;2022-12-31T17:15:38;9;8;
72023;PMS5003;59889;50.700;5.440;2022-12-31T17:18:02;11;11;
72023;PMS5003;59889;50.700;5.440;2022-12-31T17:20:28;12;11;
72023;PMS5003;59889;50.700;5.440;2022-12-31T17:22:53;12;10;